Dewitt Spain (M01)
Memphis, TN
Field Elevation: 224
Lat: 35°12.04N  Long: 90°03.24W
CTAF/Unicom Freq: 122.7000
   
     For Weather-by-Phone, call 901-354-9296
Weather Advisories
2018-12-12   02:38 Z
Altimeter 30.22" Hg
Wind 160° @ 9 KT
Gusts 15 KT
Visibility 10 SM
Ceiling CLR
Temperature 7° C (45° F)
Dewpoint -1° C (30° F)
Relative Humidity 59%
Density Altitude --
Condensation Altitude 4,100 feet
Wind Chill: 4° C (39° F)
Wind and Runways
Indicated Runway = 17
Headwind = 9 kt
Crosswind = 2 kt
History
 
 
 
More Info
All DigiWx sites map
NOAA Forecast
 
Airport IQ 5010
(2M8) Charles W. Baker Airport
(3M3) Collegedale Muni
 
about DigiWx
 
FAA Disclaimer: The data displayed is for advisory purposes only and is not to be used for flight planning or operations. For official data, please call 901-354-9296 to hear the current automated AWOS voice message.
  METAR M01 120238Z AUTO 16009G15KT 10 SM CLR 07/M01 A3022